sensor_id;sensor_type;location;lat;lon;timestamp;P1;durP1;ratioP1;P2;durP2;ratioP2
21645;SDS011;10984;45.712;4.800;2023-04-25T00:02:15;6.63;;;2.20;;
21645;SDS011;10984;45.712;4.800;2023-04-25T00:08:29;6.00;;;2.80;;
21645;SDS011;10984;45.712;4.800;2023-04-25T00:14:32;5.10;;;1.90;;
21645;SDS011;10984;45.712;4.800;2023-04-25T00:21:00;5.65;;;2.10;;
21645;SDS011;10984;45.712;4.800;2023-04-25T00:27:24;3.90;;;2.25;;
21645;SDS011;10984;45.712;4.800;2023-04-25T00:40:17;4.60;;;1.80;;
21645;SDS011;10984;45.712;4.800;2023-04-25T00:42:54;5.57;;;2.50;;
21645;SDS011;10984;45.712;4.800;2023-04-25T00:45:50;8.20;;;2.53;;
21645;SDS011;10984;45.712;4.800;2023-04-25T00:52:23;3.20;;;1.60;;
21645;SDS011;10984;45.712;4.800;2023-04-25T00:55:00;4.93;;;2.42;;
21645;SDS011;10984;45.712;4.800;2023-04-25T00:57:57;5.65;;;2.15;;
21645;SDS011;10984;45.712;4.800;2023-04-25T01:00:52;7.13;;;2.22;;
21645;SDS011;10984;45.712;4.800;2023-04-25T01:51:10;4.45;;;1.90;;
21645;SDS011;10984;45.712;4.800;2023-04-25T01:57:17;6.65;;;2.30;;
21645;SDS011;10984;45.712;4.800;2023-04-25T02:38:56;6.57;;;2.72;;
21645;SDS011;10984;45.712;4.800;2023-04-25T02:42:01;6.57;;;2.40;;
21645;SDS011;10984;45.712;4.800;2023-04-25T05:46:44;7.88;;;3.53;;
21645;SDS011;10984;45.712;4.800;2023-04-25T05:49:10;7.18;;;3.72;;
21645;SDS011;10984;45.712;4.800;2023-04-25T05:51:36;7.03;;;3.50;;
21645;SDS011;10984;45.712;4.800;2023-04-25T05:54:01;6.63;;;3.85;;
21645;SDS011;10984;45.712;4.800;2023-04-25T05:56:27;8.43;;;3.78;;
21645;SDS011;10984;45.712;4.800;2023-04-25T05:58:53;7.28;;;3.70;;
21645;SDS011;10984;45.712;4.800;2023-04-25T06:01:18;6.50;;;3.53;;
21645;SDS011;10984;45.712;4.800;2023-04-25T06:03:44;6.25;;;3.25;;
21645;SDS011;10984;45.712;4.800;2023-04-25T06:06:11;8.38;;;3.45;;
21645;SDS011;10984;45.712;4.800;2023-04-25T06:08:37;8.88;;;4.35;;
21645;SDS011;10984;45.712;4.800;2023-04-25T06:11:03;7.93;;;3.85;;
21645;SDS011;10984;45.712;4.800;2023-04-25T06:13:29;7.30;;;3.22;;
21645;SDS011;10984;45.712;4.800;2023-04-25T06:15:55;4.93;;;3.33;;
21645;SDS011;10984;45.712;4.800;2023-04-25T06:18:21;10.35;;;3.55;;
21645;SDS011;10984;45.712;4.800;2023-04-25T06:20:46;7.68;;;4.15;;
21645;SDS011;10984;45.712;4.800;2023-04-25T06:23:12;6.30;;;3.75;;
21645;SDS011;10984;45.712;4.800;2023-04-25T06:25:37;4.78;;;3.20;;
21645;SDS011;10984;45.712;4.800;2023-04-25T06:28:03;7.20;;;3.30;;
21645;SDS011;10984;45.712;4.800;2023-04-25T06:30:29;6.28;;;3.33;;
21645;SDS011;10984;45.712;4.800;2023-04-25T06:32:54;6.97;;;3.28;;
21645;SDS011;10984;45.712;4.800;2023-04-25T06:35:20;6.22;;;3.38;;
21645;SDS011;10984;45.712;4.800;2023-04-25T06:37:46;8.10;;;3.67;;
21645;SDS011;10984;45.712;4.800;2023-04-25T06:40:12;9.90;;;3.47;;
21645;SDS011;10984;45.712;4.800;2023-04-25T06:42:37;5.47;;;3.17;;
21645;SDS011;10984;45.712;4.800;2023-04-25T06:45:03;6.15;;;3.35;;
21645;SDS011;10984;45.712;4.800;2023-04-25T06:47:29;5.28;;;2.83;;
21645;SDS011;10984;45.712;4.800;2023-04-25T06:49:55;5.40;;;3.03;;
21645;SDS011;10984;45.712;4.800;2023-04-25T06:52:20;8.95;;;3.30;;
21645;SDS011;10984;45.712;4.800;2023-04-25T06:54:46;7.22;;;2.97;;
21645;SDS011;10984;45.712;4.800;2023-04-25T06:57:12;6.45;;;3.35;;
21645;SDS011;10984;45.712;4.800;2023-04-25T06:59:38;5.95;;;2.65;;
21645;SDS011;10984;45.712;4.800;2023-04-25T07:02:04;5.10;;;2.97;;
21645;SDS011;10984;45.712;4.800;2023-04-25T07:04:30;7.90;;;3.33;;
21645;SDS011;10984;45.712;4.800;2023-04-25T07:06:56;6.00;;;3.17;;
21645;SDS011;10984;45.712;4.800;2023-04-25T07:09:22;6.65;;;2.88;;
21645;SDS011;10984;45.712;4.800;2023-04-25T07:11:48;6.78;;;2.83;;
21645;SDS011;10984;45.712;4.800;2023-04-25T07:14:13;4.80;;;2.42;;
21645;SDS011;10984;45.712;4.800;2023-04-25T07:16:40;4.72;;;2.67;;
21645;SDS011;10984;45.712;4.800;2023-04-25T07:19:05;5.53;;;3.13;;
21645;SDS011;10984;45.712;4.800;2023-04-25T07:21:31;7.05;;;2.95;;
21645;SDS011;10984;45.712;4.800;2023-04-25T07:23:57;5.20;;;2.45;;
21645;SDS011;10984;45.712;4.800;2023-04-25T07:26:23;5.07;;;2.70;;
21645;SDS011;10984;45.712;4.800;2023-04-25T07:28:49;9.93;;;2.85;;
21645;SDS011;10984;45.712;4.800;2023-04-25T07:31:16;5.43;;;2.70;;
21645;SDS011;10984;45.712;4.800;2023-04-25T07:33:43;4.53;;;2.60;;
21645;SDS011;10984;45.712;4.800;2023-04-25T07:36:10;6.72;;;2.38;;
21645;SDS011;10984;45.712;4.800;2023-04-25T07:38:37;5.03;;;2.10;;
21645;SDS011;10984;45.712;4.800;2023-04-25T07:41:03;4.78;;;2.50;;
21645;SDS011;10984;45.712;4.800;2023-04-25T07:43:29;5.13;;;2.05;;
21645;SDS011;10984;45.712;4.800;2023-04-25T07:45:56;6.13;;;2.30;;
21645;SDS011;10984;45.712;4.800;2023-04-25T07:48:22;5.55;;;2.40;;
21645;SDS011;10984;45.712;4.800;2023-04-25T07:50:47;6.18;;;2.67;;
21645;SDS011;10984;45.712;4.800;2023-04-25T07:53:13;5.93;;;2.67;;
21645;SDS011;10984;45.712;4.800;2023-04-25T07:55:39;7.95;;;2.85;;
21645;SDS011;10984;45.712;4.800;2023-04-25T07:58:08;5.05;;;2.25;;
21645;SDS011;10984;45.712;4.800;2023-04-25T08:00:34;5.07;;;2.53;;
21645;SDS011;10984;45.712;4.800;2023-04-25T08:03:01;5.43;;;2.33;;
21645;SDS011;10984;45.712;4.800;2023-04-25T08:05:27;4.97;;;2.17;;
21645;SDS011;10984;45.712;4.800;2023-04-25T08:07:53;4.18;;;2.10;;
21645;SDS011;10984;45.712;4.800;2023-04-25T08:10:19;4.85;;;2.40;;
21645;SDS011;10984;45.712;4.800;2023-04-25T08:12:45;6.80;;;2.45;;
21645;SDS011;10984;45.712;4.800;2023-04-25T08:15:11;5.10;;;2.05;;
21645;SDS011;10984;45.712;4.800;2023-04-25T08:17:38;4.38;;;2.08;;
21645;SDS011;10984;45.712;4.800;2023-04-25T08:20:04;7.30;;;2.35;;
21645;SDS011;10984;45.712;4.800;2023-04-25T08:22:31;16.10;;;2.60;;
21645;SDS011;10984;45.712;4.800;2023-04-25T08:24:57;11.18;;;3.10;;
21645;SDS011;10984;45.712;4.800;2023-04-25T08:27:22;11.25;;;2.42;;
21645;SDS011;10984;45.712;4.800;2023-04-25T08:29:48;4.00;;;1.60;;
21645;SDS011;10984;45.712;4.800;2023-04-25T08:32:15;5.35;;;2.00;;
21645;SDS011;10984;45.712;4.800;2023-04-25T08:34:41;4.25;;;2.00;;
21645;SDS011;10984;45.712;4.800;2023-04-25T08:37:08;4.70;;;2.40;;
21645;SDS011;10984;45.712;4.800;2023-04-25T08:39:35;4.47;;;1.75;;
21645;SDS011;10984;45.712;4.800;2023-04-25T08:42:10;4.63;;;2.30;;
21645;SDS011;10984;45.712;4.800;2023-04-25T08:44:37;5.57;;;2.00;;
21645;SDS011;10984;45.712;4.800;2023-04-25T08:47:03;4.70;;;1.77;;
21645;SDS011;10984;45.712;4.800;2023-04-25T08:52:14;3.83;;;1.70;;
21645;SDS011;10984;45.712;4.800;2023-04-25T08:54:44;3.80;;;1.58;;
21645;SDS011;10984;45.712;4.800;2023-04-25T08:57:13;6.82;;;2.28;;
21645;SDS011;10984;45.712;4.800;2023-04-25T08:59:40;2.97;;;1.80;;
21645;SDS011;10984;45.712;4.800;2023-04-25T09:02:10;3.08;;;1.67;;
21645;SDS011;10984;45.712;4.800;2023-04-25T09:04:39;3.50;;;1.52;;
21645;SDS011;10984;45.712;4.800;2023-04-25T09:07:06;2.95;;;1.33;;
21645;SDS011;10984;45.712;4.800;2023-04-25T09:09:31;2.83;;;1.30;;
21645;SDS011;10984;45.712;4.800;2023-04-25T09:11:57;2.25;;;1.20;;
21645;SDS011;10984;45.712;4.800;2023-04-25T09:14:24;4.25;;;1.23;;
21645;SDS011;10984;45.712;4.800;2023-04-25T09:19:37;3.90;;;1.40;;
21645;SDS011;10984;45.712;4.800;2023-04-25T09:22:05;4.53;;;1.50;;
21645;SDS011;10984;45.712;4.800;2023-04-25T09:24:32;3.60;;;1.52;;
21645;SDS011;10984;45.712;4.800;2023-04-25T09:30:01;3.63;;;1.33;;
21645;SDS011;10984;45.712;4.800;2023-04-25T09:32:27;3.88;;;1.30;;
21645;SDS011;10984;45.712;4.800;2023-04-25T09:34:57;5.00;;;1.77;;
21645;SDS011;10984;45.712;4.800;2023-04-25T09:37:23;3.53;;;1.05;;
21645;SDS011;10984;45.712;4.800;2023-04-25T09:40:08;2.20;;;1.00;;
21645;SDS011;10984;45.712;4.800;2023-04-25T09:42:35;4.93;;;1.67;;
21645;SDS011;10984;45.712;4.800;2023-04-25T09:45:01;2.13;;;0.85;;
21645;SDS011;10984;45.712;4.800;2023-04-25T09:47:28;6.88;;;1.20;;
21645;SDS011;10984;45.712;4.800;2023-04-25T09:49:54;4.57;;;1.50;;
21645;SDS011;10984;45.712;4.800;2023-04-25T09:52:21;2.97;;;1.30;;
21645;SDS011;10984;45.712;4.800;2023-04-25T09:54:48;2.42;;;1.10;;
21645;SDS011;10984;45.712;4.800;2023-04-25T10:00:01;5.22;;;0.98;;
21645;SDS011;10984;45.712;4.800;2023-04-25T10:02:29;2.63;;;1.08;;
21645;SDS011;10984;45.712;4.800;2023-04-25T10:04:57;6.07;;;1.17;;
21645;SDS011;10984;45.712;4.800;2023-04-25T10:07:28;2.70;;;1.00;;
21645;SDS011;10984;45.712;4.800;2023-04-25T10:09:59;5.78;;;1.55;;
21645;SDS011;10984;45.712;4.800;2023-04-25T10:12:44;5.75;;;1.73;;
21645;SDS011;10984;45.712;4.800;2023-04-25T10:15:10;3.92;;;1.15;;
21645;SDS011;10984;45.712;4.800;2023-04-25T10:17:39;2.42;;;0.80;;
21645;SDS011;10984;45.712;4.800;2023-04-25T10:20:06;2.45;;;1.08;;
21645;SDS011;10984;45.712;4.800;2023-04-25T10:22:36;3.45;;;1.20;;
21645;SDS011;10984;45.712;4.800;2023-04-25T10:25:04;6.25;;;1.08;;
21645;SDS011;10984;45.712;4.800;2023-04-25T10:27:33;3.35;;;1.20;;
21645;SDS011;10984;45.712;4.800;2023-04-25T10:32:44;4.05;;;1.17;;
21645;SDS011;10984;45.712;4.800;2023-04-25T10:37:37;4.25;;;1.27;;
21645;SDS011;10984;45.712;4.800;2023-04-25T10:40:08;4.40;;;1.30;;
21645;SDS011;10984;45.712;4.800;2023-04-25T10:42:37;7.28;;;1.10;;
21645;SDS011;10984;45.712;4.800;2023-04-25T10:45:05;3.30;;;1.30;;
21645;SDS011;10984;45.712;4.800;2023-04-25T10:50:16;2.35;;;0.90;;
21645;SDS011;10984;45.712;4.800;2023-04-25T10:52:42;6.78;;;1.58;;
21645;SDS011;10984;45.712;4.800;2023-04-25T10:55:09;2.55;;;1.05;;
21645;SDS011;10984;45.712;4.800;2023-04-25T11:00:20;3.95;;;1.40;;
21645;SDS011;10984;45.712;4.800;2023-04-25T11:02:52;4.03;;;0.93;;
21645;SDS011;10984;45.712;4.800;2023-04-25T11:08:12;4.18;;;0.93;;
21645;SDS011;10984;45.712;4.800;2023-04-25T11:10:43;3.20;;;0.93;;
21645;SDS011;10984;45.712;4.800;2023-04-25T11:13:09;2.15;;;0.93;;
21645;SDS011;10984;45.712;4.800;2023-04-25T11:15:35;2.53;;;0.88;;
21645;SDS011;10984;45.712;4.800;2023-04-25T11:18:01;2.30;;;1.23;;
21645;SDS011;10984;45.712;4.800;2023-04-25T11:20:28;3.60;;;1.20;;
21645;SDS011;10984;45.712;4.800;2023-04-25T11:22:53;2.97;;;0.95;;
21645;SDS011;10984;45.712;4.800;2023-04-25T11:25:24;2.80;;;1.02;;
21645;SDS011;10984;45.712;4.800;2023-04-25T11:30:35;2.28;;;0.95;;
21645;SDS011;10984;45.712;4.800;2023-04-25T11:33:01;4.07;;;1.00;;
21645;SDS011;10984;45.712;4.800;2023-04-25T11:35:28;2.55;;;1.00;;
21645;SDS011;10984;45.712;4.800;2023-04-25T11:37:53;1.92;;;0.82;;
21645;SDS011;10984;45.712;4.800;2023-04-25T11:40:19;2.05;;;0.88;;
21645;SDS011;10984;45.712;4.800;2023-04-25T11:42:46;5.20;;;1.27;;
21645;SDS011;10984;45.712;4.800;2023-04-25T11:45:12;1.90;;;0.80;;
21645;SDS011;10984;45.712;4.800;2023-04-25T11:47:39;3.22;;;0.90;;
21645;SDS011;10984;45.712;4.800;2023-04-25T11:50:06;2.33;;;0.95;;
21645;SDS011;10984;45.712;4.800;2023-04-25T11:55:21;6.97;;;0.90;;
21645;SDS011;10984;45.712;4.800;2023-04-25T11:57:47;3.50;;;1.17;;
21645;SDS011;10984;45.712;4.800;2023-04-25T12:02:59;2.97;;;0.98;;
21645;SDS011;10984;45.712;4.800;2023-04-25T12:05:26;5.47;;;1.30;;
21645;SDS011;10984;45.712;4.800;2023-04-25T12:07:54;3.08;;;1.20;;
21645;SDS011;10984;45.712;4.800;2023-04-25T12:10:20;2.55;;;1.20;;
21645;SDS011;10984;45.712;4.800;2023-04-25T12:12:46;5.00;;;1.30;;
21645;SDS011;10984;45.712;4.800;2023-04-25T12:17:58;5.20;;;1.00;;
21645;SDS011;10984;45.712;4.800;2023-04-25T12:20:27;3.55;;;0.90;;
21645;SDS011;10984;45.712;4.800;2023-04-25T12:22:53;2.72;;;1.00;;
21645;SDS011;10984;45.712;4.800;2023-04-25T12:33:35;3.28;;;1.55;;
21645;SDS011;10984;45.712;4.800;2023-04-25T12:36:02;2.70;;;1.17;;
21645;SDS011;10984;45.712;4.800;2023-04-25T12:38:35;4.68;;;1.25;;
21645;SDS011;10984;45.712;4.800;2023-04-25T12:41:02;2.20;;;1.00;;
21645;SDS011;10984;45.712;4.800;2023-04-25T12:43:27;2.63;;;1.00;;
21645;SDS011;10984;45.712;4.800;2023-04-25T12:45:54;2.70;;;1.08;;
21645;SDS011;10984;45.712;4.800;2023-04-25T12:48:20;3.72;;;1.25;;
21645;SDS011;10984;45.712;4.800;2023-04-25T12:50:46;3.08;;;1.10;;
21645;SDS011;10984;45.712;4.800;2023-04-25T12:53:14;2.78;;;1.08;;
21645;SDS011;10984;45.712;4.800;2023-04-25T12:55:41;1.50;;;0.80;;
21645;SDS011;10984;45.712;4.800;2023-04-25T12:58:07;3.08;;;1.20;;
21645;SDS011;10984;45.712;4.800;2023-04-25T13:00:33;4.03;;;1.10;;
21645;SDS011;10984;45.712;4.800;2023-04-25T13:02:59;3.25;;;1.05;;
21645;SDS011;10984;45.712;4.800;2023-04-25T13:05:25;3.38;;;1.10;;
21645;SDS011;10984;45.712;4.800;2023-04-25T13:07:50;3.08;;;1.25;;
21645;SDS011;10984;45.712;4.800;2023-04-25T13:10:16;4.07;;;1.50;;
21645;SDS011;10984;45.712;4.800;2023-04-25T13:12:43;2.35;;;0.90;;
21645;SDS011;10984;45.712;4.800;2023-04-25T13:15:09;3.08;;;0.80;;
21645;SDS011;10984;45.712;4.800;2023-04-25T13:17:36;6.05;;;1.67;;
21645;SDS011;10984;45.712;4.800;2023-04-25T13:20:03;3.13;;;1.20;;
21645;SDS011;10984;45.712;4.800;2023-04-25T13:22:32;4.20;;;2.58;;
21645;SDS011;10984;45.712;4.800;2023-04-25T13:24:57;4.55;;;1.45;;
21645;SDS011;10984;45.712;4.800;2023-04-25T13:27:23;3.42;;;0.85;;
21645;SDS011;10984;45.712;4.800;2023-04-25T13:29:49;3.70;;;1.65;;
21645;SDS011;10984;45.712;4.800;2023-04-25T13:32:14;4.50;;;1.90;;
21645;SDS011;10984;45.712;4.800;2023-04-25T13:34:40;5.75;;;1.63;;
21645;SDS011;10984;45.712;4.800;2023-04-25T13:37:05;2.90;;;0.98;;
21645;SDS011;10984;45.712;4.800;2023-04-25T13:39:31;5.22;;;1.13;;
21645;SDS011;10984;45.712;4.800;2023-04-25T13:41:56;2.65;;;1.17;;
21645;SDS011;10984;45.712;4.800;2023-04-25T13:44:22;4.07;;;1.23;;
21645;SDS011;10984;45.712;4.800;2023-04-25T13:46:48;3.80;;;1.33;;
21645;SDS011;10984;45.712;4.800;2023-04-25T13:49:13;4.20;;;1.30;;
21645;SDS011;10984;45.712;4.800;2023-04-25T13:51:39;3.38;;;1.02;;
21645;SDS011;10984;45.712;4.800;2023-04-25T13:54:05;2.35;;;1.05;;
21645;SDS011;10984;45.712;4.800;2023-04-25T13:56:31;13.52;;;8.73;;
21645;SDS011;10984;45.712;4.800;2023-04-25T13:58:57;3.42;;;1.60;;
21645;SDS011;10984;45.712;4.800;2023-04-25T14:01:23;3.13;;;0.98;;
21645;SDS011;10984;45.712;4.800;2023-04-25T14:03:48;3.10;;;1.02;;
21645;SDS011;10984;45.712;4.800;2023-04-25T14:06:14;3.08;;;1.00;;
21645;SDS011;10984;45.712;4.800;2023-04-25T14:08:46;2.38;;;0.90;;
21645;SDS011;10984;45.712;4.800;2023-04-25T14:11:11;2.25;;;1.00;;
21645;SDS011;10984;45.712;4.800;2023-04-25T14:13:37;3.88;;;1.00;;
21645;SDS011;10984;45.712;4.800;2023-04-25T14:16:03;3.28;;;1.25;;
21645;SDS011;10984;45.712;4.800;2023-04-25T14:18:29;2.30;;;0.90;;
21645;SDS011;10984;45.712;4.800;2023-04-25T14:20:54;2.10;;;0.88;;
21645;SDS011;10984;45.712;4.800;2023-04-25T14:23:20;2.55;;;1.15;;
21645;SDS011;10984;45.712;4.800;2023-04-25T14:25:45;12.30;;;4.97;;
21645;SDS011;10984;45.712;4.800;2023-04-25T14:28:11;1.92;;;0.90;;
21645;SDS011;10984;45.712;4.800;2023-04-25T14:30:37;2.63;;;0.77;;
21645;SDS011;10984;45.712;4.800;2023-04-25T14:33:02;4.55;;;1.55;;
21645;SDS011;10984;45.712;4.800;2023-04-25T14:35:28;1.98;;;0.88;;
21645;SDS011;10984;45.712;4.800;2023-04-25T14:37:54;3.42;;;1.33;;
21645;SDS011;10984;45.712;4.800;2023-04-25T14:40:20;2.70;;;0.95;;
21645;SDS011;10984;45.712;4.800;2023-04-25T14:42:48;4.07;;;0.95;;
21645;SDS011;10984;45.712;4.800;2023-04-25T14:45:14;1.77;;;0.95;;
21645;SDS011;10984;45.712;4.800;2023-04-25T14:47:39;3.33;;;0.73;;
21645;SDS011;10984;45.712;4.800;2023-04-25T14:50:05;2.58;;;0.80;;
21645;SDS011;10984;45.712;4.800;2023-04-25T14:52:32;2.83;;;0.80;;
21645;SDS011;10984;45.712;4.800;2023-04-25T14:54:57;3.95;;;1.13;;
21645;SDS011;10984;45.712;4.800;2023-04-25T14:57:25;2.13;;;0.80;;
21645;SDS011;10984;45.712;4.800;2023-04-25T14:59:51;2.40;;;1.00;;
21645;SDS011;10984;45.712;4.800;2023-04-25T15:02:16;2.35;;;0.70;;
21645;SDS011;10984;45.712;4.800;2023-04-25T15:04:42;2.20;;;0.80;;
21645;SDS011;10984;45.712;4.800;2023-04-25T15:07:08;1.55;;;0.70;;
21645;SDS011;10984;45.712;4.800;2023-04-25T15:09:33;1.17;;;0.70;;
21645;SDS011;10984;45.712;4.800;2023-04-25T15:15:21;2.38;;;0.70;;
21645;SDS011;10984;45.712;4.800;2023-04-25T15:17:48;1.73;;;0.70;;
21645;SDS011;10984;45.712;4.800;2023-04-25T15:20:15;2.58;;;0.90;;
21645;SDS011;10984;45.712;4.800;2023-04-25T15:22:42;2.17;;;0.85;;
21645;SDS011;10984;45.712;4.800;2023-04-25T15:25:10;2.70;;;1.05;;
21645;SDS011;10984;45.712;4.800;2023-04-25T15:27:36;1.55;;;0.60;;
21645;SDS011;10984;45.712;4.800;2023-04-25T15:30:08;2.90;;;0.90;;
21645;SDS011;10984;45.712;4.800;2023-04-25T15:32:36;2.10;;;0.85;;
21645;SDS011;10984;45.712;4.800;2023-04-25T15:35:02;4.13;;;0.80;;
21645;SDS011;10984;45.712;4.800;2023-04-25T15:37:30;2.33;;;0.90;;
21645;SDS011;10984;45.712;4.800;2023-04-25T15:42:42;3.28;;;0.90;;
21645;SDS011;10984;45.712;4.800;2023-04-25T15:45:27;2.72;;;0.68;;
21645;SDS011;10984;45.712;4.800;2023-04-25T15:47:54;4.20;;;0.80;;
21645;SDS011;10984;45.712;4.800;2023-04-25T15:50:21;2.50;;;0.98;;
21645;SDS011;10984;45.712;4.800;2023-04-25T15:52:48;2.05;;;0.80;;
21645;SDS011;10984;45.712;4.800;2023-04-25T15:55:14;2.97;;;1.05;;
21645;SDS011;10984;45.712;4.800;2023-04-25T15:57:41;3.15;;;0.80;;
21645;SDS011;10984;45.712;4.800;2023-04-25T16:00:07;3.25;;;0.98;;
21645;SDS011;10984;45.712;4.800;2023-04-25T16:02:53;2.20;;;1.02;;
21645;SDS011;10984;45.712;4.800;2023-04-25T16:05:18;2.30;;;0.80;;
21645;SDS011;10984;45.712;4.800;2023-04-25T16:07:44;2.25;;;0.90;;
21645;SDS011;10984;45.712;4.800;2023-04-25T16:10:10;2.92;;;0.98;;
21645;SDS011;10984;45.712;4.800;2023-04-25T16:12:39;4.10;;;0.93;;
21645;SDS011;10984;45.712;4.800;2023-04-25T16:15:06;1.80;;;0.70;;
21645;SDS011;10984;45.712;4.800;2023-04-25T16:17:32;1.55;;;0.73;;
21645;SDS011;10984;45.712;4.800;2023-04-25T16:19:58;1.30;;;0.80;;
21645;SDS011;10984;45.712;4.800;2023-04-25T16:22:26;4.05;;;1.10;;
21645;SDS011;10984;45.712;4.800;2023-04-25T16:24:51;2.10;;;0.88;;
21645;SDS011;10984;45.712;4.800;2023-04-25T16:27:17;1.25;;;0.60;;
21645;SDS011;10984;45.712;4.800;2023-04-25T16:29:43;2.05;;;1.23;;
21645;SDS011;10984;45.712;4.800;2023-04-25T16:32:08;2.05;;;0.80;;
21645;SDS011;10984;45.712;4.800;2023-04-25T16:34:34;3.70;;;0.68;;
21645;SDS011;10984;45.712;4.800;2023-04-25T16:37:00;4.47;;;1.45;;
21645;SDS011;10984;45.712;4.800;2023-04-25T16:39:26;1.73;;;0.90;;
21645;SDS011;10984;45.712;4.800;2023-04-25T16:41:52;2.05;;;0.90;;
21645;SDS011;10984;45.712;4.800;2023-04-25T16:44:17;1.63;;;0.73;;
21645;SDS011;10984;45.712;4.800;2023-04-25T16:46:43;2.33;;;0.98;;
21645;SDS011;10984;45.712;4.800;2023-04-25T16:49:08;3.08;;;1.17;;
21645;SDS011;10984;45.712;4.800;2023-04-25T16:51:34;4.40;;;1.35;;
21645;SDS011;10984;45.712;4.800;2023-04-25T16:54:00;7.55;;;1.17;;
21645;SDS011;10984;45.712;4.800;2023-04-25T16:56:25;1.83;;;0.80;;
21645;SDS011;10984;45.712;4.800;2023-04-25T16:58:51;2.42;;;0.70;;
21645;SDS011;10984;45.712;4.800;2023-04-25T17:01:17;1.80;;;0.73;;
21645;SDS011;10984;45.712;4.800;2023-04-25T17:03:45;2.58;;;1.00;;
21645;SDS011;10984;45.712;4.800;2023-04-25T17:06:11;2.80;;;0.80;;
21645;SDS011;10984;45.712;4.800;2023-04-25T17:08:37;3.25;;;0.80;;
21645;SDS011;10984;45.712;4.800;2023-04-25T17:11:03;1.60;;;0.70;;
21645;SDS011;10984;45.712;4.800;2023-04-25T17:13:29;2.50;;;0.95;;
21645;SDS011;10984;45.712;4.800;2023-04-25T17:15:57;1.85;;;0.65;;
21645;SDS011;10984;45.712;4.800;2023-04-25T17:18:23;3.15;;;0.98;;
21645;SDS011;10984;45.712;4.800;2023-04-25T17:20:49;2.35;;;1.00;;
21645;SDS011;10984;45.712;4.800;2023-04-25T17:23:14;1.90;;;0.80;;
21645;SDS011;10984;45.712;4.800;2023-04-25T17:25:40;2.00;;;0.75;;
21645;SDS011;10984;45.712;4.800;2023-04-25T17:28:05;3.47;;;1.08;;
21645;SDS011;10984;45.712;4.800;2023-04-25T17:30:31;2.33;;;0.98;;
21645;SDS011;10984;45.712;4.800;2023-04-25T17:32:58;2.70;;;0.90;;
21645;SDS011;10984;45.712;4.800;2023-04-25T17:35:24;1.38;;;0.65;;
21645;SDS011;10984;45.712;4.800;2023-04-25T17:37:50;1.90;;;0.82;;
21645;SDS011;10984;45.712;4.800;2023-04-25T17:40:16;2.08;;;1.00;;
21645;SDS011;10984;45.712;4.800;2023-04-25T17:42:43;2.15;;;1.00;;
21645;SDS011;10984;45.712;4.800;2023-04-25T17:45:10;4.78;;;1.10;;
21645;SDS011;10984;45.712;4.800;2023-04-25T17:47:37;3.65;;;1.00;;
21645;SDS011;10984;45.712;4.800;2023-04-25T17:50:04;2.85;;;1.08;;
21645;SDS011;10984;45.712;4.800;2023-04-25T17:52:33;3.70;;;0.93;;
21645;SDS011;10984;45.712;4.800;2023-04-25T17:54:59;2.17;;;0.90;;
21645;SDS011;10984;45.712;4.800;2023-04-25T17:57:24;2.67;;;0.90;;
21645;SDS011;10984;45.712;4.800;2023-04-25T17:59:51;1.90;;;0.80;;
21645;SDS011;10984;45.712;4.800;2023-04-25T18:02:17;2.47;;;1.00;;
21645;SDS011;10984;45.712;4.800;2023-04-25T18:04:43;3.67;;;1.00;;
21645;SDS011;10984;45.712;4.800;2023-04-25T18:07:10;2.35;;;1.10;;
21645;SDS011;10984;45.712;4.800;2023-04-25T18:09:36;2.58;;;0.90;;
21645;SDS011;10984;45.712;4.800;2023-04-25T18:12:02;2.88;;;1.00;;
21645;SDS011;10984;45.712;4.800;2023-04-25T18:14:28;4.93;;;1.20;;
21645;SDS011;10984;45.712;4.800;2023-04-25T18:16:54;2.92;;;0.90;;
21645;SDS011;10984;45.712;4.800;2023-04-25T18:19:20;3.30;;;1.00;;
21645;SDS011;10984;45.712;4.800;2023-04-25T18:21:50;2.10;;;0.93;;
21645;SDS011;10984;45.712;4.800;2023-04-25T18:24:20;4.35;;;1.00;;
21645;SDS011;10984;45.712;4.800;2023-04-25T18:26:48;2.67;;;1.05;;
21645;SDS011;10984;45.712;4.800;2023-04-25T18:29:15;2.40;;;1.20;;
21645;SDS011;10984;45.712;4.800;2023-04-25T18:31:42;10.75;;;1.15;;
21645;SDS011;10984;45.712;4.800;2023-04-25T18:34:09;3.97;;;1.48;;
21645;SDS011;10984;45.712;4.800;2023-04-25T18:36:35;2.70;;;1.20;;
21645;SDS011;10984;45.712;4.800;2023-04-25T18:39:02;2.83;;;0.88;;
21645;SDS011;10984;45.712;4.800;2023-04-25T18:41:30;1.73;;;0.85;;
21645;SDS011;10984;45.712;4.800;2023-04-25T18:43:57;2.80;;;1.00;;
21645;SDS011;10984;45.712;4.800;2023-04-25T18:46:26;5.85;;;1.10;;
21645;SDS011;10984;45.712;4.800;2023-04-25T18:48:53;3.08;;;0.90;;
21645;SDS011;10984;45.712;4.800;2023-04-25T18:51:19;2.28;;;1.08;;
21645;SDS011;10984;45.712;4.800;2023-04-25T18:53:47;4.82;;;1.38;;
21645;SDS011;10984;45.712;4.800;2023-04-25T18:56:13;3.83;;;1.30;;
21645;SDS011;10984;45.712;4.800;2023-04-25T18:58:39;5.32;;;2.30;;
21645;SDS011;10984;45.712;4.800;2023-04-25T19:01:05;4.00;;;1.20;;
21645;SDS011;10984;45.712;4.800;2023-04-25T19:03:31;4.47;;;1.95;;
21645;SDS011;10984;45.712;4.800;2023-04-25T19:05:57;11.52;;;2.00;;
21645;SDS011;10984;45.712;4.800;2023-04-25T19:08:24;5.18;;;1.85;;
21645;SDS011;10984;45.712;4.800;2023-04-25T19:10:49;4.95;;;1.70;;
21645;SDS011;10984;45.712;4.800;2023-04-25T19:13:17;4.45;;;1.80;;
21645;SDS011;10984;45.712;4.800;2023-04-25T19:15:44;4.57;;;1.70;;
21645;SDS011;10984;45.712;4.800;2023-04-25T19:18:11;5.03;;;1.90;;
21645;SDS011;10984;45.712;4.800;2023-04-25T19:20:36;4.85;;;1.60;;
21645;SDS011;10984;45.712;4.800;2023-04-25T19:23:06;5.30;;;1.30;;
21645;SDS011;10984;45.712;4.800;2023-04-25T19:25:33;5.03;;;1.40;;
21645;SDS011;10984;45.712;4.800;2023-04-25T19:27:58;2.53;;;1.33;;
21645;SDS011;10984;45.712;4.800;2023-04-25T19:30:25;4.63;;;1.42;;
21645;SDS011;10984;45.712;4.800;2023-04-25T19:32:53;5.82;;;2.42;;
21645;SDS011;10984;45.712;4.800;2023-04-25T19:35:20;6.97;;;2.42;;
21645;SDS011;10984;45.712;4.800;2023-04-25T19:37:46;3.35;;;1.30;;
21645;SDS011;10984;45.712;4.800;2023-04-25T19:40:12;5.45;;;2.25;;
21645;SDS011;10984;45.712;4.800;2023-04-25T19:42:39;4.20;;;1.60;;
21645;SDS011;10984;45.712;4.800;2023-04-25T19:45:05;3.58;;;1.80;;
21645;SDS011;10984;45.712;4.800;2023-04-25T19:47:31;4.97;;;2.03;;
21645;SDS011;10984;45.712;4.800;2023-04-25T19:49:57;4.30;;;2.17;;
21645;SDS011;10984;45.712;4.800;2023-04-25T19:52:23;6.05;;;2.33;;
21645;SDS011;10984;45.712;4.800;2023-04-25T19:54:48;4.28;;;2.08;;
21645;SDS011;10984;45.712;4.800;2023-04-25T19:57:14;6.25;;;1.70;;
21645;SDS011;10984;45.712;4.800;2023-04-25T19:59:40;2.80;;;1.35;;
21645;SDS011;10984;45.712;4.800;2023-04-25T20:02:05;3.78;;;1.50;;
21645;SDS011;10984;45.712;4.800;2023-04-25T20:04:34;4.32;;;2.28;;
21645;SDS011;10984;45.712;4.800;2023-04-25T20:07:00;5.90;;;2.47;;
21645;SDS011;10984;45.712;4.800;2023-04-25T20:09:25;4.68;;;2.25;;
21645;SDS011;10984;45.712;4.800;2023-04-25T20:11:51;4.70;;;1.90;;
21645;SDS011;10984;45.712;4.800;2023-04-25T20:14:17;4.10;;;2.08;;
21645;SDS011;10984;45.712;4.800;2023-04-25T20:16:44;3.13;;;1.48;;
21645;SDS011;10984;45.712;4.800;2023-04-25T20:19:10;3.75;;;1.45;;
21645;SDS011;10984;45.712;4.800;2023-04-25T20:21:36;4.63;;;1.98;;
21645;SDS011;10984;45.712;4.800;2023-04-25T20:24:02;4.93;;;2.10;;
21645;SDS011;10984;45.712;4.800;2023-04-25T20:26:27;5.40;;;1.77;;
21645;SDS011;10984;45.712;4.800;2023-04-25T20:28:57;7.53;;;1.92;;
21645;SDS011;10984;45.712;4.800;2023-04-25T20:31:24;5.60;;;2.35;;
21645;SDS011;10984;45.712;4.800;2023-04-25T20:33:49;4.45;;;1.85;;
21645;SDS011;10984;45.712;4.800;2023-04-25T20:36:15;7.95;;;1.60;;
21645;SDS011;10984;45.712;4.800;2023-04-25T20:38:41;4.35;;;1.38;;
21645;SDS011;10984;45.712;4.800;2023-04-25T20:41:06;3.85;;;1.50;;